FOND DU LAC (CZFD)

METAR CZFD 121000Z AUTO 10009KT 9SM 16/13 A2975
METAR CZFD 120900Z AUTO 10010KT 9SM 17/13 A2977
METAR CZFD 120800Z AUTO 09006KT 9SM 17/12 A2978


Test Image